Time;durP1;ratioP1;P1;durP2;ratioP2;P2;SDS_P1;SDS_P2;PMS_P1;PMS_P2;Temp;Humidity;BMP_temperature;BMP_pressure;BME280_temperature;BME280_humidity;BME280_pressure;Samples;Min_cycle;Max_cycle;Signal;HPM_P1;HPM_P2
2021/10/22 00:13:21;;;;;;;1.63;0.93;;;;;;;8.54;100.00;98863.31;714606;1200;113354;-82
2021/10/22 00:28:23;;;;;;;1.95;1.15;;;;;;;8.44;100.00;98866.00;714738;1174;113231;-82
2021/10/22 00:43:30;;;;;;;5.33;2.20;;;;;;;8.46;100.00;98892.03;714423;1203;113645;-83
2021/10/22 00:58:34;;;;;;;3.03;1.83;;;;;;;8.72;100.00;98905.03;714379;1203;113212;-83
2021/10/22 01:13:38;;;;;;;6.50;1.80;;;;;;;8.59;100.00;98921.17;714492;1202;113882;-83
2021/10/22 01:28:40;;;;;;;3.00;1.50;;;;;;;8.41;100.00;98943.91;715286;1176;113170;-83
2021/10/22 01:43:43;;;;;;;2.80;1.50;;;;;;;8.37;100.00;98964.30;714663;1176;113484;-83
2021/10/22 01:58:46;;;;;;;2.80;1.13;;;;;;;8.31;100.00;98952.67;715429;1177;113876;-83
2021/10/22 02:13:48;;;;;;;5.47;1.17;;;;;;;8.24;99.33;98966.50;714683;1199;114127;-85
2021/10/22 02:28:50;;;;;;;5.17;2.43;;;;;;;8.16;99.62;99019.50;714736;1178;113058;-84
2021/10/22 02:43:52;;;;;;;4.25;1.65;;;;;;;7.91;98.27;99018.46;714221;1200;114373;-83
2021/10/22 02:58:54;;;;;;;12.33;3.90;;;;;;;7.91;96.83;99047.19;714187;1200;112988;-85
2021/10/22 03:13:56;;;;;;;5.57;1.83;;;;;;;7.70;96.38;99058.71;714541;1200;113076;-84
2021/10/22 03:28:59;;;;;;;4.47;1.70;;;;;;;7.69;99.17;99096.22;714649;1200;113788;-83
2021/10/22 03:44:01;;;;;;;5.38;1.73;;;;;;;7.80;98.09;99116.11;714223;1174;113717;-85
2021/10/22 03:59:03;;;;;;;9.13;1.87;;;;;;;7.94;96.17;99125.22;714441;1184;113026;-83
2021/10/22 04:14:05;;;;;;;8.45;2.40;;;;;;;7.81;95.45;99131.63;714688;1199;113017;-84
2021/10/22 04:29:08;;;;;;;8.20;3.30;;;;;;;7.77;95.16;99161.61;714305;1200;113457;-83
2021/10/22 04:44:10;;;;;;;8.58;3.45;;;;;;;7.80;94.12;99163.11;714590;1200;113370;-83
2021/10/22 04:59:12;;;;;;;11.33;3.80;;;;;;;7.88;93.56;99178.86;714319;1200;112441;-84
2021/10/22 05:14:14;;;;;;;4.35;1.60;;;;;;;7.76;92.91;99178.23;714972;1200;114433;-82
2021/10/22 05:29:17;;;;;;;7.53;2.78;;;;;;;7.73;95.61;99191.55;715203;1174;114570;-84
2021/10/22 05:44:20;;;;;;;4.40;2.33;;;;;;;7.58;97.50;99204.25;714992;1199;113784;-84
2021/10/22 05:59:23;;;;;;;12.83;5.80;;;;;;;7.63;97.52;99243.00;714586;1199;113028;-84
2021/10/22 06:14:26;;;;;;;12.00;4.15;;;;;;;7.55;97.63;99256.75;715371;1200;113725;-83
2021/10/22 06:29:30;;;;;;;19.28;5.68;;;;;;;7.59;97.39;99280.79;714923;1203;113297;-82
2021/10/22 06:44:32;;;;;;;28.37;7.97;;;;;;;7.69;97.51;99280.75;715077;1204;114480;-78
2021/10/22 06:59:34;;;;;;;17.93;5.70;;;;;;;7.74;97.51;99279.36;714864;1176;113709;-79
2021/10/22 07:14:38;;;;;;;22.10;7.55;;;;;;;7.81;97.39;99285.67;715531;1200;114261;-73
2021/10/22 07:29:40;;;;;;;17.17;6.50;;;;;;;7.97;98.23;99305.13;715060;1178;112509;-81
2021/10/22 07:44:44;;;;;;;20.50;8.48;;;;;;;8.26;97.58;99317.27;715598;1206;114145;-79
2021/10/22 07:59:47;;;;;;;13.37;4.50;;;;;;;8.15;97.15;99339.17;714718;1205;113734;-79
2021/10/22 08:14:49;;;;;;;15.73;5.40;;;;;;;8.37;96.47;99345.00;715527;1200;114057;-79
2021/10/22 08:29:52;;;;;;;26.73;8.97;;;;;;;8.48;96.56;99335.20;715520;1201;113342;-78
2021/10/22 08:44:56;;;;;;;16.00;7.93;;;;;;;8.59;96.39;99351.67;714876;1176;114076;-79
2021/10/22 09:00:00;;;;;;;13.38;5.15;;;;;;;8.61;96.20;99362.83;714740;1202;114097;-81
2021/10/22 09:15:05;;;;;;;18.53;5.93;;;;;;;8.60;95.19;99367.21;715481;1199;114296;-80
2021/10/22 09:30:30;;;;;;;10.20;3.27;;;;;;;8.88;95.44;99348.08;714741;1193;113778;-80
2021/10/22 09:45:33;;;;;;;13.95;5.40;;;;;;;8.99;93.74;99350.50;715379;1200;113481;-88
2021/10/22 10:00:36;;;;;;;7.30;3.93;;;;;;;8.95;92.97;99338.69;715151;1203;113412;-81
2021/10/22 10:15:40;;;;;;;15.43;5.47;;;;;;;8.94;93.09;99334.42;715432;1200;113616;-90
2021/10/22 10:30:43;;;;;;;11.43;4.50;;;;;;;9.13;93.15;99325.60;714730;1200;113786;-80
2021/10/22 10:45:47;;;;;;;13.60;3.95;;;;;;;9.30;91.74;99289.94;714619;1178;113656;-80
2021/10/22 11:01:03;;;;;;;12.93;4.53;;;;;;;9.59;90.68;99283.61;715244;1200;113116;-84
2021/10/22 11:16:07;;;;;;;8.93;3.00;;;;;;;9.92;88.54;99266.28;716501;1204;113838;-77
2021/10/22 11:31:09;;;;;;;8.98;3.38;;;;;;;9.97;87.03;99253.54;714911;1200;113512;-78
2021/10/22 11:46:20;;;;;;;6.65;3.10;;;;;;;10.12;84.15;99259.03;714354;1200;113854;-79
2021/10/22 12:01:23;;;;;;;10.23;3.50;;;;;;;10.16;83.28;99233.31;714232;1200;113359;-80
2021/10/22 12:16:30;;;;;;;13.70;4.93;;;;;;;10.09;80.74;99234.94;714268;1200;113976;-80
2021/10/22 12:31:54;;;;;;;8.93;3.60;;;;;;;10.02;81.88;99212.94;714107;1177;113774;-80
2021/10/22 12:46:59;;;;;;;21.33;5.60;;;;;;;9.83;82.54;99212.20;714272;1200;113855;-80
2021/10/22 13:02:02;;;;;;;13.47;5.70;;;;;;;9.52;85.55;99204.05;715784;1206;114084;-80
2021/10/22 13:32:26;;;;;;;15.58;5.73;;;;;;;8.96;93.79;99199.06;714734;1202;115140;-77
2021/10/22 13:47:31;;;;;;;19.83;6.15;;;;;;;8.81;97.11;99219.70;715876;1200;114520;-80
2021/10/22 14:02:33;;;;;;;30.40;10.60;;;;;;;8.58;99.48;99201.85;716146;1199;114037;-79
2021/10/22 14:17:47;;;;;;;17.05;6.05;;;;;;;8.60;99.69;99196.47;715285;1203;114352;-79
2021/10/22 14:32:56;;;;;;;13.70;5.10;;;;;;;8.61;98.87;99177.20;714289;1199;113307;-81
2021/10/22 14:48:02;;;;;;;12.85;5.40;;;;;;;8.70;98.84;99168.46;713959;1205;113419;-80
2021/10/22 15:03:07;;;;;;;17.10;5.75;;;;;;;8.63;99.72;99164.79;713888;1202;113780;-73
2021/10/22 15:18:10;;;;;;;13.43;5.95;;;;;;;8.30;100.00;99161.83;714249;1202;113772;-75
2021/10/22 15:33:13;;;;;;;16.90;7.15;;;;;;;8.04;100.00;99138.21;714105;1200;113854;-73
2021/10/22 15:48:15;;;;;;;19.90;6.83;;;;;;;7.84;100.00;99135.73;714011;1204;114723;-73
2021/10/22 16:03:18;;;;;;;10.78;5.73;;;;;;;7.71;100.00;99146.51;714241;1200;113835;-73
2021/10/22 16:18:20;;;;;;;14.18;7.00;;;;;;;7.71;100.00;99146.51;714182;1200;113695;-73
2021/10/22 16:35:41;;;;;;;20.48;8.58;;;;;;;7.78;100.00;99146.75;714614;1204;113893;-83
2021/10/22 16:48:45;;;;;;;12.97;5.33;;;;;;;7.83;100.00;99145.34;714248;1204;113965;-80
2021/10/22 17:03:48;;;;;;;20.80;8.08;;;;;;;7.92;100.00;99153.29;714350;1200;113462;-80
2021/10/22 17:18:51;;;;;;;32.37;11.13;;;;;;;8.05;100.00;99172.05;715644;1199;113610;-83
2021/10/22 17:33:54;;;;;;;22.25;10.28;;;;;;;8.02;100.00;99161.06;714201;1178;114358;-82
2021/10/22 17:48:57;;;;;;;35.20;12.93;;;;;;;8.11;100.00;99178.47;714304;1191;114099;-83
2021/10/22 18:03:59;;;;;;;25.15;9.05;;;;;;;7.97;100.00;99218.94;714600;1205;114287;-81
2021/10/22 18:19:01;;;;;;;14.47;6.40;;;;;;;7.95;100.00;99242.59;714430;1200;114365;-82
2021/10/22 18:34:04;;;;;;;14.20;7.30;;;;;;;7.98;100.00;99262.38;714001;1200;114417;-80
2021/10/22 18:49:29;;;;;;;13.60;5.80;;;;;;;7.82;100.00;99270.81;713832;1202;115015;-81
2021/10/22 19:04:34;;;;;;;9.58;4.98;;;;;;;7.34;100.00;99322.15;713928;1177;113700;-80
2021/10/22 19:19:37;;;;;;;3.23;2.10;;;;;;;7.02;100.00;99330.22;713963;1200;113681;-81
2021/10/22 19:34:39;;;;;;;3.37;2.07;;;;;;;7.04;100.00;99349.99;713951;1176;113706;-87
2021/10/22 19:49:41;;;;;;;5.75;2.60;;;;;;;7.08;100.00;99374.03;714006;1200;113692;-85
2021/10/22 20:04:44;;;;;;;6.53;3.58;;;;;;;7.23;100.00;99390.94;713967;1199;113308;-76
2021/10/22 20:19:46;;;;;;;5.05;2.25;;;;;;;6.73;100.00;99436.11;714213;1202;114967;-81
2021/10/22 20:34:49;;;;;;;8.03;3.40;;;;;;;6.39;100.00;99446.77;714024;1176;113231;-80
2021/10/22 20:50:14;;;;;;;16.70;6.70;;;;;;;6.18;100.00;99469.38;714066;1193;113270;-81
2021/10/22 21:05:16;;;;;;;6.25;2.83;;;;;;;6.01;100.00;99495.05;714321;1187;113547;-81
2021/10/22 21:20:19;;;;;;;8.40;3.00;;;;;;;5.90;100.00;99484.63;714054;1176;113449;-82
2021/10/22 21:35:21;;;;;;;4.50;2.40;;;;;;;5.78;100.00;99509.88;714031;1199;113630;-81
2021/10/22 21:50:23;;;;;;;4.70;2.70;;;;;;;5.80;100.00;99526.21;717885;1200;114054;-81
2021/10/22 22:05:25;;;;;;;4.80;2.30;;;;;;;5.86;100.00;99550.91;714738;1200;113894;-81
2021/10/22 22:20:28;;;;;;;4.15;2.63;;;;;;;5.83;100.00;99562.39;714302;1203;113716;-80
2021/10/22 22:35:32;;;;;;;3.75;1.63;;;;;;;5.86;100.00;99564.78;714555;1203;114625;-80
2021/10/22 22:50:34;;;;;;;3.30;1.35;;;;;;;5.93;100.00;99583.33;713890;1199;114070;-82
2021/10/22 23:05:36;;;;;;;4.87;1.80;;;;;;;6.05;100.00;99603.20;714183;1194;114410;-81
2021/10/22 23:20:42;;;;;;;3.68;1.63;;;;;;;6.22;100.00;99630.50;714585;1192;113979;-81
2021/10/22 23:35:44;;;;;;;7.65;2.20;;;;;;;6.28;100.00;99642.20;714037;1200;113426;-82
2021/10/22 23:50:46;;;;;;;2.60;1.73;;;;;;;6.35;100.00;99664.22;714004;1200;114136;-82
